© 2016 by Franz.Schwengler www.schwengler.de / impressum

Lauftermine in Mittelfranken und Umgebung 2016/2017

(Termin-Infos bitte mailen an: Franz.Schwengler@Planet-Marathon.de)
         
Datum Diskussionsforum: Lauftreff-Franken Forum PLZ Ort Strecken in km
         
  auf Facebook: LAUF NORIS LAUF - Franken rennt      
         
  2016      
Juli        
02.07.2016 11. Schwandorfer Charity Stadtlauf 92421 Schwandorf 10,0 / 5,0
03.07.2016 19. Neuendettelsauer Kirchweihlauf 91564 Neuendettelsau 10,0 / 2,0
03.07.2016 36. VR-Bank-Lauf "Rund um die Fränkische Krone" 96450 Coburg 10,0
08.07.2016 15. Krankenhauslauf Kitzingen 97318 Kitzingen 13,8 / 6,9
09.07.2016 13. Tanzenhaider Weiherlauf 91097 Oberreichenbach 10,0 / 3,0
09.07.2016 4. Petersberg Berg-Crosslauf 91613 Marktbergel 10,0
09.07.2016 18. Illschwanger Dorflauf 92278 Illschwang 8,25 / 5,0
09.07.2016 16. Fichtelgebirgsmarathon (aber nur Halbmarathon) 95680 Bad Alexanderbad 21,1
09.07.2016 9. Kappelseelauf in Rentweinsdorf 96184 Rentweinsdorf 21,1 / 11,6
09.07.2016 7. Hambach Night Run 97456 Hambach 15,6 / 8,0
10.07.2016 29. Altdorfer Wallenstein Halbmarathon 90518 Altdorf 21,1 / 12,1
10.07.2016 14. Sonnefelder Viertelmarathon 96242 Sonnefeld 10,5 / 4,8
13.07.2016 1. Ansbacher Netzwerklauf 91522 Ansbach 6,0 / 3,0
13.07.2016 8. Volks- und Raiffeisenbank Amberg-Sulzbacher Firmenlauf 92224 Amberg 5,0
14.07.2016 6. Nürnberger Friedenslauf (Schülerlauf) 90443 Nürnberg Rundenlauf
15.07.2016 32. Schwanberglauf von Iphofen nach Castell 97346 Iphofen 10,4
16.07.2016 2. Wrestling Run 90579 Langenzenn 12,0 / 6,0
16.07.2016 4. Challenge Woman 5km Lauf und Walk 91143 Roth 5,0
16.07.2016 11. VR-Bank Run and Bike Team-Marathon 96450 Coburg 42,195
16.07.-17.07. 10. Via Carolina Staffel-Lauf von Prag nach Nürnberg   Prag - Nürnberg 324,0 km (!)
17.07.2016 15. DATEV Challenge Roth (mit Marathon in der Staffel) 91143 Roth 42,195
17.07.2016 7. Plankenfelser Waldlauf 95515 Plankenfels 11,3 / 3,5
21.07.2016 6. B2RUN Nürnberg (12. Firmenlauf der Metropolregion Nürnberg) 90471 Nürnberg 6,0
21.07.2016 7. Fischer Automobile Neumarkter Firmenlauf 92308 Neumarkt 5,0
22.07.2016 10. Panoramalauf Euerbach 97502 Euerbach 10,0 / 5,0
23.07.2016 6. Fürther Gourmet-Lauf 90768 Fürth 10,0
23.07.2016 31. Hochstraßenlaufdes Heimatvereins Weisendorf e.V. 91085 Weisendorf 10,0 / 4,5
23.07.2016 31. Heizomat Altmühlseelauf 91710 Gunzenhausen-Unterwurmbach 21,1 / 7,4
24.07.2016 7. Neunkirchner Brandbach-Lauf 91077 Neunkirchen am Brand 10,0
24.07.2016 3. Run for Music Spendenlauf 96450 Coburg 10,0
29.07.2016 2. Adam-Riese Nachtlauf 96231 Bad Staffelstein 9,6 / 4,7
30.07.2016 28. Allersberger Kirchweihlauf 90584 Allersberg 10,0 / 5,0
31.07.2016 8. Einsiedel Waldlauf 97261 Güntersleben 12,0 / 7,0
31.07.2016 9. WeinFestLauf Garstadt 97493 Garstadt 10,0 / 5,0
August        
07.08.2016 16. Hilpoltsteiner Burgfestlauf 91161 Hilpoltstein 7,6 / 3,8
07.08.2016 7. Kapellenlauf Vorra 96158 Vorra 21,1 / 10,55
13.08.2016 3. Wolff Sports Ultra Trail 90537 Feucht 90,0
14.08.2016 16. Rother Kirchweihlauf 91143 Roth 10,0 / 4,0
15.08.2016 34. Gäuboden-Volksfest-Lauf 94315 Straubing 10,0
20.08.2016 1. "Run for Fun colour inflatable obstacle run" Nürnberg (Hindernislauf mit Farbstationen) 90471 Nürnberg 5,0
21.08.2016 3. Rats-Runners Urban Run Weissenburg 91781 Weissenburg 20,0 / 10,0
21.08.2016 4. Froschgrund-Volkslauf 96472 Rödenthal 21,1 / 10,0
27.08.2016 39. "Lu-Lauf" Halbmarathon 94333 Geiselhöring 21,1 / 10,5
28.08.2016 45. Aurachtallauf Herzogenaurach 91074 Herzogenaurach 10,0 / 4,4
September        
03.09.2016 Zehntel-Marathon Hobby-Lauf 91320 Ebermannstadt 4,2
03.09.2016 11. Hesselberg-Berglauf in Ehingen 91725 Ehingen 6,5
03.09.2016 37. Fichtelsee-Lauf (Gruppenlauf) 95632 Bad Alexanderbad 36,0 / 12,0
04.09.2016 20. Nürnberger Halbmarathon 90403 Nürnberg 21,1 / 10,0
04.09.2016 3. Deutsche Post Ladies Run 90403 Nürnberg 10,0 / 5,0
04.09.2016 17. Fränkische-Schweiz Marathon 91320 Ebermannstadt 42,2 / 21,0 / 10,0
09.09.2016 13. Erlanger Nachtlauf 91054 Erlangen 11,4 / 7,6 / 3,8
09.09.2016 17. Ipsheimer Weinbergslauf 91472 Ipsheim 5,8
10.09.2016 16. Schwarzenbacher Ausdauertage 95126 Schwarzenbach 21,1 / 10,0
10.09.2016 9. Motor-Nützel FUN Lauf 95326 Kulmbach 10,0
10.09.2016 14. Run of hope 96317 Kronach 21,1 / 10,0
11.09.2016 16. "Rund um Rannungen" 97517 Rannungen 21,1 / 10,0
14.09.2016 7. Fürth Firmenlauf 90762 Fürth 5,0
17.09.2016 3. RUNTERRA (Extrem Hindernislauf) 90513 Zirndorf 24,0 / 16,0 / 8,0
17.09.2016 30. Erlangen Arcaden-Lauf in die Mönau 91056 Erlangen 10,0 / 5,0
17.09.2016 15. Mönchshof Kessellauf in Kulmbach 95326 Kulmbach 14,3 / 7,2
17.09.2016 3. Trail-Running Halbmarathon (13. Fichtelgebirgs Nordic Walking Marathon) 95482 Gefrees 21,1 / 12,0
18.09.2016 1. Nürnberger Altstadtfestlauf 90403 Nürnberg 10,0 / 5,0
18.09.2016 6. NIFCO KTW Seenlandmarathon 91785 Pleinfeld 42,2 / 21,1
18.09.2016 17. Neumarkter Stadtlauf 92308 Neumarkt 21,1 /10,5
20.09.2016 5. Martha-Maria-Meile (Benefiz-Laufaktion) (2015 zum 1.mal in München) 90491 Nürnberg 1,2 km beliebig oft
24.09.2016 23. Obernzenner-Seelauf 91619 Obernzenn 8,7
24.09.2016 6. 2 Städtelauf Merkendorf - Wolframs-Eschenbach 91732 Merkendorf 21,1 / 10,2 / 5,5
24.09.2016 13. Burgen- und Schlösser-Lauf 92268 Kirchenreinbach 3-Etappen-Lauf
24.09.2016 8. Kemmerner Kuckucks-Lauf 96164 Kemmern 10,0 / 4,0
24.09.2016 2. Maintal-Ultratrail 97209 Veitshöchsheim 64,5 / 28,0
24.09.2016 11. Wiesentheider Kirchweihlauf 97353 Wiesentheid 10,0 / 5,0
25.09.2016 24. Stadtlauf "10 km von Röthenbach" 90552 Röthenbach 10,0
25.09.2016 8. Halbmarathon "Rund um Kronach" 96317 Kronach 21,1 / 10,0
25.09.2016 2. runandfun Marathon 97688 Bad Kissingen 42,2 / 21,1 / 10,0
30.09.2016 6. ERH-Vital-Lauf 91085 Weisendorf 10,0 / 6,6
Oktober        
01.10.2016 9. Hofer "Park und See Lauf" 95032 Hof 21,1 / 10,0
01.10.2016 3. Taubertal 100 97877 Wertheim 100,0 / 71,0 / 50,0
02.10.2016 3. Walsdorfer AuerOchsenLauf 96194 Walsdorf 10,0 / 5,0
03.10.2016 21. StadtLauf Nürnberg 90403 Nürnberg 21,1 / 10,5 / 6,0
03.10.2016 8. Feuchtwangener Kreuzganglauf Altstadtlauf 91555 Feuchtwangen 10,0 / 3,3
03.10.2016 4. Tempel Marathon Etsdorf (nur 38,5 km !) 92272 Etsdorf 38,5 / 19,9
03.10.2016 20. Gollhöfer Straßenlauf 97258 Gollhofen 10,0 / 5,0
08.10.2015 14. Herbstlauf-Schloss-Thurn 91336 Heroldsbach 21,1 /7,0
08.10.2016 2. Weidener X-Trail 92637 Weiden 15,0 / 8,0
08.10.2016 21. Abt-Degen-Lauf Zeil 97475 Zeil 11,0
09.10.2016 33. Fürther Kärwa-Lauf 90766 Fürth 7,5
09.10.2016 25. RIBE Schwabacher Citylauf 91126 Schwabach 21,1 / 10,0
15.10.2016 12. Altmühl-Jura Halbmarathon 91171 Greding 21,1 / 14,0
15.10.2016 31. Steigerwald-Fackellauf 96152 Burghaslach 7,9
16.10.2016 3. Erlanger Lauf gegen Krebs 91058 Erlangen Spenden-Lauf
22.10.2016 3. Altmühltrail 91795 Dollnstein 26,0 / 9,0
29.10.2016 1. Jubiläums-Lauf des FSV Erlangen-Bruck 91058 Erlangen 10,0 / 5,0
29.10.2016 1. Lauf der Crosslaufserie 2015 91604 Flachslanden 7,7 / 3,3
29.10.2016 30. Frankenwald-Lauf 95364 Ludwigschorgast 12,0
November        
01.11.2016 13. Sparkassen-Nachtlauf Neustadt/Aisch 91413 Neustadt/Aisch 9,8 / 4,3
05.11.2016 10. Rothenburger Lichterlauf 91541 Rothenburg o.d. Tauber 8,0 / 4,0
06.11.2016 12. TÜV Rheinland Indoor-Marathon Nürnberg 90431 Nürnberg 42,2 / 21,1
06.11.2016 22. Großhabersdorfer Bibertlauf 90613 Großhabersdorf 13,0 / 7,5
12.11.2016 3. Winterlaufserie am Nürnberger Dutzendteich 90403 Nürnberg 10,0 / 5,0
12.11.2016 79. Büchenbacher Waldlauf 91186 Büchenbach 11,6
12.11.2016 34. Feuchtwanger Crosslauf 91555 Feuchtwangen 8,8 / 3,8
12.11.2016 13. Amberger Ultra-Lauf (AULA 2013) 92224 Amberg Etappenlauf
12.11.2016 30. Adam-Riese-Staffelberglauf Bad Staffelstein 96231 Bad Staffelstein 3,96
12.11.2016 13. Zeiler Waldmarathon 97475 Zeil 42,2 / 21,1
13.11.2016 18. TGK Lebkuchenlauf 97318 Kitzingen 10,0
19.11.2016 12. Kunstweglauf Rednitzhembach 91126 Rednitzhembach 10,0 / 5,5
20.11.2016 32. Memmelsdorfer Schlosslauf 96117 Memmelsdorf 10,0
26.11.2016 Crosslauf des TSV Rohr 3. Lauf zur Crossserie BLV-Kreis Mittelfranken-Süd 91189 Rohr 9,4
Dezember        
03.12.2016 40. Forchheimer Nikolaus-Lauf 91301 Forchheim 10,0 / 5,3
04.12.2016 2. Nürnberger Nikolauslauf 90403 Nürnberg 10,0
04.12.2016 35. Nikolauslauf in Ochsenfurt 97199 Ochsenfurt 7,5
10.12.2016 Dinkelsbühler Wald- und Crosslauf 91550 Dinkelsbühl 10,4 / 3,5
26.12.2016 34. Nürnberger Trainingsmarathon 90409 Nürnberg 1,523 - 42,195
31.12.2016 14. Nürnberger Silvesterlauf 90403 Nürnberg 10,0 / 5,0
31.12.2016 9. Hueber-Silvesterlauf in Pleinfeld 91785 Pleinfeld 9,5 / 5,1
31.12.2016 26. Volks-Raiffeisenbank-Silvesterlauf 92224 Amberg 7,5 / 5,0
31.12.2016 4. Wolff Sports Silvesterultra 92318 Neumarkt/Höhenberg 18,0 + 19,0 + 12,0
31.12.2016 36. Seubersdorfer Silvesterlauf 92358 Seubersdorf 9,4 / 5,6
31.12.2016 7. THERAmed-Adam-Riese Silvesterlauf Bad Staffelstein 96231 Bad Staffelstein 10,0 / 5,0
         
  2017      
Januar        
06.01.2017 30. Kersbacher Dreikönigslauf 91301 Kersbach 12,0 / 6,0
14.01.2017 3. Winterlaufserie am Nürnberger Dutzendteich 90403 Nürnberg 10,0 / 15,0
15.01.2017 16. Dinkelsbühler Stadtlauf (Winterlauf) 91550 Dinkelsbühl 10,0 / 5,0
Februar        
19.02.2017 3. Winterlaufserie am Nürnberger Dutzendteich 90403 Nürnberg 10,0 / 20,0
März        
19.03.2017 7. Welt Down Syndrom Tag Marathon (mit 6-Stunden-Lauf) 90763 Fürth 42,2/21,1/10,0
April        
30.04.2017 8. Bamberger Weltkulturerbe-Lauf 96052 Bamberg 21,1 / 10,9
September        
17.09.2017 7. Freundschaftsmarathon Weiden - Amberg 92224 Amberg 42,2 / 21,1
         
ARCHIV Lauf-Kalender von Jörg Behrendt für Westmittelfranken und Umgebung      
         
www.schwengler.de

Mit Urteil vom 12. Mai 1998 hat das Landgericht Hamburg entschieden, dass man durch die Ausbringung eines Links die Inhalte der gelinkten Seite ggf. mit zu verantworten hat. Dies kann - so das Landesgericht - nur dadurch verhindert werden, dass man sich ausdrücklich von diesen Inhalten distanziert. Wir haben auf unserer Seite Links zu anderen Seiten im Internet gelegt. Für all diese Links gilt: Wir möchten ausdrücklich betonen, dass wir keinerlei Einfluss auf die Gestaltung und die Inhalte der gelinkten Seiten haben. Deshalb distanzieren wir uns hiermit ausdrücklich von allen Inhalten der gelinkten Seiten und wir machen uns deren Inhalte nicht zu Eigen. Diese Erklärung gilt für alle auf unserer Seite ausgebrachten Links.